createdAt,value
2018-04-28T00:02:18.405Z,64.00
2018-04-28T00:04:45.851Z,64.10
2018-04-28T00:07:13.500Z,64.20
2018-04-28T00:09:40.990Z,64.40
2018-04-28T00:12:08.455Z,64.40
2018-04-28T00:14:36.717Z,64.60
2018-04-28T00:17:07.643Z,64.60
2018-04-28T00:19:36.055Z,64.70
2018-04-28T00:22:04.993Z,64.90
2018-04-28T00:24:39.053Z,64.90
2018-04-28T00:27:26.905Z,64.90
2018-04-28T00:29:57.373Z,65.00
2018-04-28T00:32:24.836Z,64.80
2018-04-28T00:35:07.616Z,64.80
2018-04-28T00:37:36.522Z,64.90
2018-04-28T00:40:05.851Z,65.00
2018-04-28T00:42:35.319Z,65.00
2018-04-28T00:45:04.432Z,65.10
2018-04-28T00:47:31.900Z,65.10
2018-04-28T00:50:00.115Z,65.20
2018-04-28T00:52:28.516Z,65.30
2018-04-28T00:55:08.680Z,65.30
2018-04-28T00:57:38.936Z,65.40
2018-04-28T01:00:16.389Z,65.40
2018-04-28T01:02:44.632Z,65.40
2018-04-28T01:05:27.012Z,65.40
2018-04-28T01:07:55.248Z,65.40
2018-04-28T01:10:22.696Z,65.70
2018-04-28T01:12:51.807Z,65.70
2018-04-28T01:15:21.240Z,65.70
2018-04-28T01:17:54.825Z,65.70
2018-04-28T01:20:28.960Z,65.80
2018-04-28T01:22:56.448Z,65.90
2018-04-28T01:25:48.759Z,65.80
2018-04-28T01:28:33.660Z,65.90
2018-04-28T01:31:01.855Z,66.00
2018-04-28T01:33:31.727Z,66.00
2018-04-28T01:36:05.157Z,66.00
2018-04-28T01:38:34.148Z,66.10
2018-04-28T01:41:14.219Z,66.20
2018-04-28T01:43:46.074Z,66.20
2018-04-28T01:46:16.033Z,66.30
2018-04-28T01:48:45.992Z,66.20
2018-04-28T01:51:20.192Z,66.30
2018-04-28T01:57:06.271Z,66.40
2018-04-28T01:59:59.533Z,66.10
2018-04-28T02:02:47.655Z,66.10
2018-04-28T02:05:25.759Z,66.20
2018-04-28T02:07:53.217Z,66.10
2018-04-28T02:10:48.151Z,66.20
2018-04-28T02:13:34.103Z,66.20
2018-04-28T02:16:02.392Z,66.30
2018-04-28T02:18:35.817Z,66.20
2018-04-28T02:21:15.161Z,66.30
2018-04-28T02:23:46.108Z,66.30
2018-04-28T02:26:14.476Z,66.40
2018-04-28T02:28:42.992Z,66.30
2018-04-28T02:31:28.945Z,66.20
2018-04-28T02:34:04.867Z,66.30
2018-04-28T02:36:45.770Z,66.40
2018-04-28T02:39:14.778Z,66.30
2018-04-28T02:41:52.992Z,66.60
2018-04-28T02:44:28.172Z,66.50
2018-04-28T02:47:05.161Z,66.60
2018-04-28T02:49:34.300Z,66.60
2018-04-28T02:55:20.013Z,66.60
2018-04-28T02:57:51.210Z,66.60
2018-04-28T03:00:30.872Z,66.70
2018-04-28T03:03:00.184Z,66.70
2018-04-28T03:05:33.336Z,66.70
2018-04-28T03:08:09.412Z,66.90
2018-04-28T03:10:44.756Z,66.80
2018-04-28T03:13:19.961Z,66.90
2018-04-28T03:15:47.404Z,66.90
2018-04-28T03:18:14.897Z,66.90
2018-04-28T03:20:46.108Z,67.10
2018-04-28T03:26:48.145Z,67.00
2018-04-28T03:29:15.752Z,67.40
2018-04-28T03:31:43.904Z,67.20
2018-04-28T03:34:14.954Z,67.30
2018-04-28T03:36:52.074Z,67.40
2018-04-28T03:39:23.340Z,68.40
2018-04-28T03:41:50.797Z,68.90
2018-04-28T03:44:40.663Z,68.70
2018-04-28T03:47:10.881Z,68.70
2018-04-28T03:49:38.343Z,68.60
2018-04-28T03:52:10.302Z,68.80
2018-04-28T03:54:37.751Z,68.80
2018-04-28T03:57:23.044Z,69.00
2018-04-28T04:00:02.508Z,69.00
2018-04-28T04:02:41.928Z,69.90
2018-04-28T04:05:11.852Z,69.30
2018-04-28T04:07:41.832Z,69.30
2018-04-28T04:13:22.638Z,69.40
2018-04-28T04:15:56.869Z,69.50
2018-04-28T04:24:37.104Z,69.70
2018-04-28T04:27:10.431Z,69.60
2018-04-28T04:29:48.846Z,69.70
2018-04-28T04:32:18.115Z,69.80
2018-04-28T04:37:52.885Z,69.80
2018-04-28T04:43:44.692Z,70.10
2018-04-28T04:46:13.784Z,70.20
2018-04-28T04:48:47.334Z,70.10
2018-04-28T04:51:26.930Z,70.10
2018-04-28T04:54:01.044Z,70.30
2018-04-28T04:56:51.268Z,70.30
2018-04-28T05:05:16.096Z,70.50
2018-04-28T05:20:12.203Z,70.80
2018-04-28T05:22:51.472Z,70.70
2018-04-28T05:25:31.665Z,71.00
2018-04-28T05:28:04.093Z,71.00
2018-04-28T05:30:38.128Z,71.00
2018-04-28T05:33:17.540Z,71.00
2018-04-28T05:38:53.666Z,70.70
2018-04-28T05:41:33.923Z,69.80
2018-04-28T05:44:12.750Z,69.70
2018-04-28T05:46:46.273Z,70.30
2018-04-28T05:52:20.220Z,69.50
2018-04-28T05:55:10.255Z,69.40
2018-04-28T05:57:45.648Z,69.10
2018-04-28T06:00:19.122Z,68.90
2018-04-28T06:02:52.549Z,68.80
2018-04-28T06:05:26.075Z,68.70
2018-04-28T06:08:17.333Z,68.70
2018-04-28T06:11:21.554Z,68.60
2018-04-28T06:14:00.781Z,68.70
2018-04-28T06:16:38.958Z,68.70
2018-04-28T06:24:54.013Z,68.70
2018-04-28T06:27:21.559Z,68.60
2018-04-28T06:29:49.136Z,68.40
2018-04-28T06:32:16.693Z,68.30
2018-04-28T06:34:44.140Z,68.10
2018-04-28T06:37:13.056Z,68.20
2018-04-28T06:39:41.901Z,68.30
2018-04-28T06:42:09.468Z,68.20
2018-04-28T06:44:37.729Z,68.20
2018-04-28T06:47:05.315Z,68.10
2018-04-28T06:49:32.815Z,68.00
2018-04-28T06:52:00.327Z,67.90
2018-04-28T06:54:27.905Z,67.90
2018-04-28T06:56:55.457Z,67.80
2018-04-28T06:59:22.976Z,67.80
2018-04-28T07:01:50.450Z,67.70
2018-04-28T07:04:54.825Z,67.70
2018-04-28T07:07:22.369Z,67.70
2018-04-28T07:09:51.897Z,67.60
2018-04-28T07:12:19.425Z,67.60
2018-04-28T07:14:46.968Z,67.30
2018-04-28T07:17:15.228Z,67.20
2018-04-28T07:19:42.754Z,67.20
2018-04-28T07:22:10.251Z,67.20
2018-04-28T07:24:39.337Z,67.10
2018-04-28T07:27:06.888Z,67.00
2018-04-28T07:29:34.486Z,67.00
2018-04-28T07:32:02.757Z,66.90
2018-04-28T07:34:30.270Z,66.80
2018-04-28T07:36:58.247Z,66.70
2018-04-28T07:39:26.554Z,66.60
2018-04-28T07:41:57.676Z,66.40
2018-04-28T07:44:25.356Z,66.30
2018-04-28T07:46:53.666Z,66.30
2018-04-28T07:49:21.181Z,66.10
2018-04-28T07:51:48.680Z,66.20
2018-04-28T07:54:17.591Z,66.20
2018-04-28T07:56:45.084Z,66.10
2018-04-28T07:59:12.605Z,65.90
2018-04-28T08:04:41.601Z,66.10
2018-04-28T08:07:09.104Z,66.00
2018-04-28T08:09:36.606Z,65.90
2018-04-28T08:12:04.994Z,65.50
2018-04-28T08:14:32.557Z,65.40
2018-04-28T08:17:00.104Z,65.30
2018-04-28T08:19:27.647Z,65.30
2018-04-28T08:21:55.266Z,65.30
2018-04-28T08:24:22.771Z,65.00
2018-04-28T08:26:50.285Z,64.90
2018-04-28T08:29:18.789Z,65.00
2018-04-28T08:31:46.309Z,64.80
2018-04-28T08:34:13.768Z,64.80
2018-04-28T08:36:41.371Z,64.90
2018-04-28T08:39:08.836Z,64.90
2018-04-28T08:41:36.379Z,64.80
2018-04-28T08:44:03.836Z,64.50
2018-04-28T08:46:31.294Z,64.20
2018-04-28T08:48:59.273Z,63.80
2018-04-28T08:51:27.689Z,64.00
2018-04-28T08:53:55.911Z,64.10
2018-04-28T08:56:23.379Z,64.10
2018-04-28T08:58:50.842Z,64.00
2018-04-28T09:01:32.082Z,64.00
2018-04-28T09:03:59.636Z,63.80
2018-04-28T09:06:27.142Z,63.40
2018-04-28T09:08:54.636Z,63.50
2018-04-28T09:11:22.857Z,63.70
2018-04-28T09:13:50.398Z,63.60
2018-04-28T09:16:17.829Z,63.60
2018-04-28T09:18:46.145Z,63.00
2018-04-28T09:21:13.613Z,62.90
2018-04-28T09:23:41.089Z,62.80
2018-04-28T09:26:08.572Z,62.50
2018-04-28T09:28:36.876Z,63.40
2018-04-28T09:31:04.347Z,63.30
2018-04-28T09:33:31.822Z,63.00
2018-04-28T09:36:19.002Z,62.70
2018-04-28T09:38:46.498Z,62.60
2018-04-28T09:41:13.953Z,62.40
2018-04-28T09:43:41.411Z,62.10
2018-04-28T09:46:08.957Z,62.10
2018-04-28T09:48:36.432Z,62.00
2018-04-28T09:51:04.345Z,61.60
2018-04-28T09:53:32.588Z,61.60
2018-04-28T09:56:00.068Z,61.60
2018-04-28T09:58:27.565Z,61.30
2018-04-28T10:00:55.072Z,61.20
2018-04-28T10:03:28.165Z,61.20
2018-04-28T10:06:00.625Z,61.10
2018-04-28T10:08:28.791Z,60.80
2018-04-28T10:10:56.297Z,60.70
2018-04-28T10:13:24.512Z,61.00
2018-04-28T10:15:51.979Z,60.90
2018-04-28T10:18:19.487Z,60.60
2018-04-28T10:20:47.776Z,60.80
2018-04-28T10:23:15.225Z,60.70
2018-04-28T10:25:45.899Z,61.00
2018-04-28T10:28:13.380Z,61.00
2018-04-28T10:30:40.878Z,60.90
2018-04-28T10:33:09.100Z,60.90
2018-04-28T10:35:36.559Z,60.80
2018-04-28T10:38:04.228Z,60.60
2018-04-28T10:40:31.666Z,60.60
2018-04-28T10:42:59.161Z,60.50
2018-04-28T10:45:26.716Z,60.20
2018-04-28T10:47:54.235Z,59.70
2018-04-28T10:50:21.697Z,59.50
2018-04-28T10:52:49.612Z,59.40
2018-04-28T10:55:17.080Z,59.60
2018-04-28T10:57:45.321Z,59.30
2018-04-28T11:00:16.424Z,59.30
2018-04-28T11:02:43.951Z,59.70
2018-04-28T11:05:11.421Z,59.60
2018-04-28T11:07:39.672Z,59.90
2018-04-28T11:10:07.152Z,59.70
2018-04-28T11:12:35.406Z,60.00
2018-04-28T11:15:02.860Z,59.90
2018-04-28T11:17:30.444Z,59.80
2018-04-28T11:19:57.938Z,59.70
2018-04-28T11:22:25.351Z,59.50
2018-04-28T11:24:52.812Z,59.50
2018-04-28T11:27:20.273Z,59.10
2018-04-28T11:29:47.760Z,58.80
2018-04-28T11:32:15.212Z,57.90
2018-04-28T11:34:42.675Z,58.20
2018-04-28T11:37:10.249Z,58.00
2018-04-28T11:39:37.711Z,58.50
2018-04-28T11:42:05.188Z,58.30
2018-04-28T11:44:32.673Z,57.30
2018-04-28T11:47:00.134Z,57.60
2018-04-28T11:49:27.653Z,57.70
2018-04-28T11:51:55.097Z,57.90
2018-04-28T11:54:22.661Z,57.60
2018-04-28T11:56:50.140Z,56.80
2018-04-28T11:59:17.617Z,57.30
2018-04-28T12:01:45.085Z,57.40
2018-04-28T12:04:12.890Z,57.20
2018-04-28T12:06:40.349Z,56.80
2018-04-28T12:09:07.817Z,56.90
2018-04-28T12:11:35.323Z,56.80
2018-04-28T12:14:03.557Z,56.80
2018-04-28T12:16:31.010Z,56.70
2018-04-28T12:18:58.480Z,56.60
2018-04-28T12:21:25.931Z,56.70
2018-04-28T12:23:53.391Z,56.70
2018-04-28T12:26:21.319Z,56.90
2018-04-28T12:28:49.547Z,57.40
2018-04-28T12:31:16.996Z,57.30
2018-04-28T12:33:44.464Z,56.90
2018-04-28T12:36:12.092Z,56.20
2018-04-28T12:38:39.556Z,56.30
2018-04-28T12:41:07.026Z,56.60
2018-04-28T12:43:34.664Z,56.00
2018-04-28T12:46:02.145Z,55.60
2018-04-28T12:48:29.611Z,55.90
2018-04-28T12:50:57.099Z,55.60
2018-04-28T12:53:24.572Z,55.80
2018-04-28T12:55:52.821Z,56.00
2018-04-28T12:58:20.392Z,56.00
2018-04-28T13:00:47.867Z,56.30
2018-04-28T13:03:15.423Z,55.90
2018-04-28T13:05:43.668Z,56.20
2018-04-28T13:08:11.306Z,56.20
2018-04-28T13:10:38.746Z,55.90
2018-04-28T13:13:07.021Z,55.90
2018-04-28T13:15:34.538Z,55.80
2018-04-28T13:18:02.007Z,55.60
2018-04-28T13:20:30.235Z,55.70
2018-04-28T13:22:57.874Z,55.60
2018-04-28T13:25:25.328Z,55.30
2018-04-28T13:27:52.772Z,55.50
2018-04-28T13:30:20.271Z,55.60
2018-04-28T13:32:47.755Z,55.80
2018-04-28T13:35:15.365Z,55.60
2018-04-28T13:37:42.963Z,55.90
2018-04-28T13:40:10.431Z,56.10
2018-04-28T13:42:37.989Z,56.30
2018-04-28T13:45:05.501Z,55.90
2018-04-28T13:47:32.960Z,55.90
2018-04-28T13:50:00.442Z,56.00
2018-04-28T13:52:27.920Z,55.80
2018-04-28T13:54:55.388Z,55.80
2018-04-28T13:57:22.844Z,55.70
2018-04-28T13:59:50.508Z,55.60
2018-04-28T14:02:21.882Z,55.30
2018-04-28T14:04:55.067Z,55.30
2018-04-28T14:07:22.558Z,55.30
2018-04-28T14:09:50.017Z,55.30
2018-04-28T14:12:17.696Z,55.60
2018-04-28T14:14:45.147Z,55.60
2018-04-28T14:17:12.977Z,55.10
2018-04-28T14:19:41.224Z,55.20
2018-04-28T14:22:08.702Z,55.20
2018-04-28T14:24:36.931Z,54.40
2018-04-28T14:27:04.462Z,54.40
2018-04-28T14:29:31.887Z,54.50
2018-04-28T14:31:59.489Z,54.50
2018-04-28T14:34:26.942Z,54.20
2018-04-28T14:36:54.401Z,54.20
2018-04-28T14:39:23.462Z,54.80
2018-04-28T14:41:50.839Z,55.20
2018-04-28T14:44:19.068Z,55.20
2018-04-28T14:46:46.623Z,55.20
2018-04-28T14:49:14.059Z,55.00
2018-04-28T14:51:43.260Z,54.60
2018-04-28T14:54:10.741Z,54.70
2018-04-28T14:56:38.428Z,54.30
2018-04-28T14:59:05.930Z,54.40
2018-04-28T15:01:35.088Z,54.70
2018-04-28T15:04:02.532Z,54.90
2018-04-28T15:06:30.027Z,54.60
2018-04-28T15:09:01.956Z,54.30
2018-04-28T15:11:29.399Z,54.20
2018-04-28T15:13:56.936Z,54.10
2018-04-28T15:16:30.170Z,53.90
2018-04-28T15:18:57.661Z,53.80
2018-04-28T15:21:25.103Z,54.20
2018-04-28T15:23:53.420Z,53.90
2018-04-28T15:26:20.900Z,53.80
2018-04-28T15:28:48.352Z,53.50
2018-04-28T15:31:16.024Z,53.50
2018-04-28T15:33:43.504Z,53.30
2018-04-28T15:36:11.760Z,53.20
2018-04-28T15:38:39.257Z,53.10
2018-04-28T15:41:07.506Z,53.30
2018-04-28T15:43:34.992Z,53.30
2018-04-28T15:46:03.200Z,53.20
2018-04-28T15:48:30.752Z,53.10
2018-04-28T15:50:58.229Z,53.30
2018-04-28T15:53:25.678Z,53.00
2018-04-28T15:55:53.304Z,53.40
2018-04-28T15:58:20.795Z,53.20
2018-04-28T16:00:48.318Z,53.30
2018-04-28T16:03:17.087Z,53.40
2018-04-28T16:05:44.537Z,53.30
2018-04-28T16:08:12.026Z,53.40
2018-04-28T16:10:45.101Z,53.30
2018-04-28T16:13:12.557Z,53.30
2018-04-28T16:15:40.045Z,54.10
2018-04-28T16:18:07.493Z,53.40
2018-04-28T16:20:35.077Z,53.50
2018-04-28T16:23:02.560Z,53.60
2018-04-28T16:25:30.010Z,53.80
2018-04-28T16:27:57.529Z,53.90
2018-04-28T16:30:25.025Z,53.90
2018-04-28T16:32:52.510Z,53.80
2018-04-28T16:35:20.204Z,53.90
2018-04-28T16:37:48.604Z,54.00
2018-04-28T16:40:16.048Z,54.00
2018-04-28T16:42:43.519Z,54.20
2018-04-28T16:45:10.968Z,54.10
2018-04-28T16:47:41.057Z,54.10
2018-04-28T16:50:08.524Z,54.20
2018-04-28T16:52:36.776Z,54.30
2018-04-28T16:55:04.461Z,54.20
2018-04-28T16:57:32.725Z,55.10
2018-04-28T17:00:00.209Z,54.50
2018-04-28T17:02:27.697Z,54.40
2018-04-28T17:04:55.161Z,54.90
2018-04-28T17:07:22.825Z,55.00
2018-04-28T17:09:50.296Z,55.20
2018-04-28T17:12:17.833Z,55.40
2018-04-28T17:14:45.393Z,55.20
2018-04-28T17:17:12.924Z,55.30
2018-04-28T17:19:40.348Z,55.50
2018-04-28T17:22:08.050Z,55.50
2018-04-28T17:24:35.539Z,55.40
2018-04-28T17:27:03.010Z,55.50
2018-04-28T17:29:30.518Z,55.60
2018-04-28T17:31:58.035Z,55.70
2018-04-28T17:34:25.472Z,55.70
2018-04-28T17:36:52.996Z,55.90
2018-04-28T17:39:21.250Z,56.20
2018-04-28T17:41:48.741Z,56.20
2018-04-28T17:44:16.268Z,56.30
2018-04-28T17:46:43.724Z,55.90
2018-04-28T17:49:27.168Z,56.60
2018-04-28T17:51:54.645Z,56.10
2018-04-28T17:54:22.149Z,55.90
2018-04-28T17:56:49.638Z,56.00
2018-04-28T17:59:17.143Z,56.20
2018-04-28T18:01:44.632Z,56.10
2018-04-28T18:04:13.001Z,56.20
2018-04-28T18:06:40.470Z,56.10
2018-04-28T18:09:07.938Z,56.30
2018-04-28T18:11:35.895Z,56.40
2018-04-28T18:14:03.354Z,56.60
2018-04-28T18:16:30.813Z,57.20
2018-04-28T18:18:58.316Z,56.80
2018-04-28T18:21:25.960Z,56.80
2018-04-28T18:23:54.200Z,57.00
2018-04-28T18:26:21.746Z,56.90
2018-04-28T18:28:50.023Z,57.10
2018-04-28T18:31:17.489Z,57.00
2018-04-28T18:33:44.940Z,57.20
2018-04-28T18:36:12.495Z,57.30
2018-04-28T18:38:39.962Z,57.30
2018-04-28T18:41:07.462Z,57.50
2018-04-28T18:43:34.910Z,57.50
2018-04-28T18:46:02.392Z,57.50
2018-04-28T18:48:30.639Z,57.80
2018-04-28T18:50:58.091Z,57.70
2018-04-28T18:53:25.637Z,57.80
2018-04-28T18:55:53.104Z,57.80
2018-04-28T18:58:20.598Z,58.00
2018-04-28T19:00:48.808Z,58.00
2018-04-28T19:03:16.285Z,58.00
2018-04-28T19:05:43.769Z,58.10
2018-04-28T19:08:11.444Z,58.10
2018-04-28T19:10:38.909Z,58.40
2018-04-28T19:13:06.365Z,58.40
2018-04-28T19:15:34.712Z,59.00
2018-04-28T19:18:02.181Z,58.80
2018-04-28T19:20:29.624Z,59.00
2018-04-28T19:22:57.130Z,59.20
2018-04-28T19:25:24.570Z,59.20
2018-04-28T19:27:52.801Z,59.90
2018-04-28T19:30:20.422Z,59.70
2018-04-28T19:32:48.624Z,60.10
2018-04-28T19:35:16.067Z,60.10
2018-04-28T19:37:43.657Z,60.20
2018-04-28T19:40:11.113Z,60.50
2018-04-28T19:42:38.576Z,60.50
2018-04-28T19:45:06.217Z,60.70
2018-04-28T19:47:33.673Z,60.90
2018-04-28T19:50:01.133Z,60.90
2018-04-28T19:52:28.628Z,61.30
2018-04-28T19:54:56.115Z,61.70
2018-04-28T19:57:24.338Z,61.70
2018-04-28T19:59:51.785Z,61.70
2018-04-28T20:02:19.316Z,61.70
2018-04-28T20:04:46.807Z,61.90
2018-04-28T20:07:15.213Z,62.10
2018-04-28T20:09:42.689Z,62.40
2018-04-28T20:12:10.204Z,62.40
2018-04-28T20:14:37.696Z,62.50
2018-04-28T20:17:05.146Z,62.50
2018-04-28T20:19:32.591Z,62.50
2018-04-28T20:22:12.012Z,62.80
2018-04-28T20:24:51.552Z,62.90
2018-04-28T20:27:19.031Z,62.90
2018-04-28T20:29:46.480Z,63.20
2018-04-28T20:32:13.963Z,63.10
2018-04-28T20:34:41.432Z,62.90
2018-04-28T20:37:08.887Z,63.20
2018-04-28T20:39:36.413Z,63.30
2018-04-28T20:42:03.959Z,63.20
2018-04-28T20:44:31.407Z,63.50
2018-04-28T20:46:58.836Z,63.70
2018-04-28T20:49:27.083Z,64.10
2018-04-28T20:51:54.525Z,63.90
2018-04-28T20:54:21.986Z,64.10
2018-04-28T20:56:49.456Z,64.20
2018-04-28T20:59:16.908Z,64.20
2018-04-28T21:01:48.314Z,64.20
2018-04-28T21:04:15.763Z,64.40
2018-04-28T21:06:43.212Z,64.50
2018-04-28T21:09:11.480Z,64.90
2018-04-28T21:11:39.691Z,65.00
2018-04-28T21:14:07.145Z,64.90
2018-04-28T21:16:34.673Z,64.90
2018-04-28T21:19:02.926Z,65.10
2018-04-28T21:21:30.378Z,64.90
2018-04-28T21:23:57.824Z,64.80
2018-04-28T21:26:25.377Z,64.90
2018-04-28T21:28:52.904Z,65.00
2018-04-28T21:31:20.379Z,65.20
2018-04-28T21:33:47.851Z,65.30
2018-04-28T21:36:16.055Z,65.60
2018-04-28T21:38:44.010Z,65.60
2018-04-28T21:41:11.456Z,65.70
2018-04-28T21:43:38.903Z,65.70
2018-04-28T21:46:06.452Z,65.90
2018-04-28T21:48:33.912Z,66.70
2018-04-28T21:51:01.380Z,66.10
2018-04-28T21:53:28.836Z,66.20
2018-04-28T21:55:56.330Z,66.20
2018-04-28T21:58:23.779Z,66.20
2018-04-28T22:00:51.216Z,66.40
2018-04-28T22:03:22.317Z,66.20
2018-04-28T22:05:50.563Z,66.00
2018-04-28T22:08:17.999Z,66.00
2018-04-28T22:10:45.456Z,66.20
2018-04-28T22:13:12.920Z,66.10
2018-04-28T22:15:40.533Z,66.20
2018-04-28T22:18:08.742Z,66.10
2018-04-28T22:20:36.196Z,66.10
2018-04-28T22:23:03.653Z,66.10
2018-04-28T22:25:31.125Z,66.10
2018-04-28T22:27:58.721Z,66.10
2018-04-28T22:30:26.930Z,66.20
2018-04-28T22:32:54.389Z,66.20
2018-04-28T22:35:21.983Z,66.20
2018-04-28T22:37:49.431Z,66.40
2018-04-28T22:40:17.056Z,66.50
2018-04-28T22:42:44.535Z,66.60
2018-04-28T22:45:11.997Z,66.80
2018-04-28T22:47:39.447Z,67.00
2018-04-28T22:50:06.903Z,67.20
2018-04-28T22:52:34.532Z,67.30
2018-04-28T22:55:02.752Z,67.60
2018-04-28T22:57:30.203Z,67.50
2018-04-28T22:59:57.668Z,67.60
2018-04-28T23:02:25.112Z,67.60
2018-04-28T23:04:52.558Z,67.70
2018-04-28T23:07:20.103Z,67.50
2018-04-28T23:09:48.316Z,67.70
2018-04-28T23:12:15.766Z,67.70
2018-04-28T23:14:43.262Z,67.70
2018-04-28T23:17:10.694Z,67.80
2018-04-28T23:19:39.117Z,67.80
2018-04-28T23:22:07.482Z,68.80
2018-04-28T23:24:34.928Z,68.00
2018-04-28T23:27:02.372Z,68.00
2018-04-28T23:29:30.249Z,68.00
2018-04-28T23:31:57.687Z,68.00
2018-04-28T23:34:25.142Z,68.20
2018-04-28T23:36:52.632Z,68.10
2018-04-28T23:39:20.073Z,68.30
2018-04-28T23:41:51.269Z,68.30
2018-04-28T23:44:19.533Z,68.40
2018-04-28T23:46:47.748Z,68.30
2018-04-28T23:49:15.203Z,68.20
2018-04-28T23:51:42.699Z,68.40
2018-04-28T23:54:10.165Z,68.30
2018-04-28T23:56:37.640Z,68.50
2018-04-28T23:59:05.851Z,68.50
